This is the latest recevied weather packets stored in our database for station/object N7CEE-2. If no packets are shown the sender has not sent any weather packets the latest 10 day(s).
| Time | Temp. | Humidity | Pressure | Rain* | Wind** | Luminosity | Snow |
|---|---|---|---|---|---|---|---|
| 1777653927 | 25° C | 36% | 1015.1 hPa | 0 mm | - | 713 W/m² | - |
| 1777653624 | 25° C | 36% | 1015.2 hPa | 0 mm | - | 697 W/m² | - |
| 1777653320 | 25° C | 36% | 1015.3 hPa | 0 mm | - | 682 W/m² | - |
| 1777653017 | 24.44° C | 36% | 1015.3 hPa | 0 mm | - | 665 W/m² | - |
| 1777652713 | 25° C | 36% | 1015.3 hPa | 0 mm | - | 650 W/m² | - |
| 1777652410 | 24.44° C | 36% | 1015.2 hPa | 0 mm | - | 630 W/m² | - |
| 1777652108 | 24.44° C | 37% | 1015.1 hPa | 0 mm | - | 613 W/m² | - |
| 1777651804 | 23.89° C | 36% | 1015.2 hPa | 0 mm | - | 595 W/m² | - |
| 1777651501 | 23.89° C | 36% | 1015 hPa | 0 mm | - | 577 W/m² | - |
| 1777651198 | 23.33° C | 40% | 1015.3 hPa | 0 mm | - | 556 W/m² | - |
| 1777650895 | 23.89° C | 38% | 1015 hPa | 0 mm | - | 535 W/m² | - |
| 1777650591 | 23.89° C | 39% | 1015.1 hPa | 0 mm | - | 521 W/m² | - |
| 1777650289 | 23.33° C | 39% | 1015.3 hPa | 0 mm | - | 500 W/m² | - |
| 1777649986 | 22.78° C | 41% | 1015 hPa | 0 mm | - | 477 W/m² | - |
| 1777649683 | 22.78° C | 41% | 1014.9 hPa | 0 mm | - | 456 W/m² | - |
| 1777649379 | 23.33° C | 40% | 1014.9 hPa | 0 mm | - | 441 W/m² | - |
| 1777649077 | 22.78° C | 40% | 1014.9 hPa | 0 mm | - | 420 W/m² | - |
| 1777648774 | 22.22° C | 42% | 1014.7 hPa | 0 mm | - | 402 W/m² | - |
| 1777648471 | 22.78° C | 42% | 1014.7 hPa | 0 mm | - | 382 W/m² | - |
| 1777648167 | 22.78° C | 41% | 1014.7 hPa | 0 mm | - | 363 W/m² | - |
| 1777647862 | 22.22° C | 42% | 1014.6 hPa | 0 mm | - | 343 W/m² | - |
| 1777647559 | 21.67° C | 43% | 1014.8 hPa | 0 mm | - | 320 W/m² | - |
| 1777647256 | 21.67° C | 43% | 1014.5 hPa | 0 mm | - | 301 W/m² | - |
| 1777646954 | 21.67° C | 43% | 1014.5 hPa | 0 mm | - | 282 W/m² | - |
| 1777646649 | 21.67° C | 42% | 1014.4 hPa | 0 mm | - | 260 W/m² | - |
* Rain latest hour (hover to see other rain measurements)
** Current wind speed in m/s (hover to see current wind gust speed)